»·PEaware :: N214B KONT-KOXR

N214B :: KONT-KOXR

FLIGHT INFORMATION

Flight Status: Arrived
Operator: Privately registered:
United States
More flights under this callsign
Pilot: Paul C. (33538)
Aircraft: SOCATA TBM-900
(TBM9)
More flights by this aircraft type
Origin: KONT Ontario Intl
United States
Destination: KOXR Oxnard
United States
More flights between these airports :: More routes between these airports
Route: PDZ V197 POM V264 ITSME V186 FIM
File this flight plan on PilotEdge
Remarks:
Altitude:
(Current/Filed)
8,000ft
Speed:
(Current/Filed)
250kts
Departed: 05-Feb-21 03:16 PM
Arrived: 05-Feb-21 03:39 PM
Distance/Time
Traveled:
80nm/0:23
Distance/Time
To Go:
Arrived

Flight Plot

Page will automatically refresh every two minutes.


Map Options




Map Legend


Flown Route
Filed Route
Departure Airport
Arrival Airport
Navaid (VOR, NDB)
Fix

Horizontal Profiles

Position Reports

Time Latitude Longitude Heading Altitude Ground
Speed
05-Feb-21 14:46 34.059027 -117.608780 319 943ft 0kts
05-Feb-21 14:47 34.059027 -117.608780 319 943ft 0kts
05-Feb-21 14:48 34.059027 -117.608780 319 943ft 0kts
05-Feb-21 14:49 34.059027 -117.608780 319 943ft 0kts
05-Feb-21 14:50 34.059027 -117.608780 319 943ft 0kts
05-Feb-21 14:51 34.059027 -117.608780 319 943ft 0kts
05-Feb-21 14:52 34.059027 -117.608780 319 943ft 0kts
05-Feb-21 14:53 34.059027 -117.608780 319 943ft 0kts
05-Feb-21 14:54 34.059027 -117.608780 319 943ft 0kts
05-Feb-21 14:55 34.059027 -117.608780 319 943ft 0kts
05-Feb-21 14:56 34.059027 -117.608780 319 943ft 0kts
05-Feb-21 14:57 34.059027 -117.608780 319 943ft 0kts
05-Feb-21 14:58 34.059027 -117.608780 319 943ft 0kts
05-Feb-21 14:58 34.059027 -117.608780 319 943ft 0kts
05-Feb-21 15:00 34.059027 -117.608780 319 943ft 0kts
05-Feb-21 15:01 34.058840 -117.608587 319 943ft 2kts
05-Feb-21 15:01 34.058751 -117.608494 319 943ft 0kts
05-Feb-21 15:02 34.058751 -117.608494 319 943ft 0kts
05-Feb-21 15:03 34.058751 -117.608494 319 943ft 0kts
05-Feb-21 15:04 34.058751 -117.608494 319 943ft 0kts
05-Feb-21 15:05 34.058954 -117.608077 125 944ft 9kts
05-Feb-21 15:06 34.058001 -117.605200 90 947ft 13kts
05-Feb-21 15:07 34.057968 -117.600273 91 941ft 17kts
05-Feb-21 15:08 34.057995 -117.593724 90 934ft 20kts
05-Feb-21 15:09 34.057995 -117.587882 90 941ft 15kts
05-Feb-21 15:10 34.057918 -117.582951 139 937ft 4kts
05-Feb-21 15:11 34.057815 -117.582875 154 937ft 0kts
05-Feb-21 15:12 34.057815 -117.582875 154 937ft 0kts
05-Feb-21 15:13 34.057815 -117.582875 154 937ft 0kts
05-Feb-21 15:14 34.056915 -117.583413 265 938ft 23kts
05-Feb-21 15:15 34.058781 -117.617089 270 1986ft 142kts
05-Feb-21 15:16 34.059035 -117.670739 271 3843ft 199kts
05-Feb-21 15:17 34.058648 -117.748990 270 4002ft 252kts
05-Feb-21 15:18 34.063877 -117.828184 276 5516ft 218kts
05-Feb-21 15:19 34.068671 -117.902622 275 7019ft 226kts
05-Feb-21 15:20 34.073736 -117.981234 277 7936ft 250kts
05-Feb-21 15:21 34.093343 -118.064098 289 7993ft 265kts
05-Feb-21 15:22 34.119008 -118.148113 291 7992ft 267kts
05-Feb-21 15:23 34.144691 -118.232348 291 7984ft 267kts
05-Feb-21 15:24 34.170311 -118.316437 291 7983ft 266kts
05-Feb-21 15:25 34.192633 -118.401127 269 7977ft 268kts
05-Feb-21 15:26 34.189252 -118.491022 273 7976ft 267kts
05-Feb-21 15:27 34.191210 -118.581315 271 6451ft 274kts
05-Feb-21 15:28 34.192686 -118.667720 272 5046ft 231kts
05-Feb-21 15:29 34.193950 -118.740964 272 4964ft 209kts
05-Feb-21 15:30 34.195061 -118.810235 272 4963ft 204kts
05-Feb-21 15:31 34.196134 -118.878081 272 4982ft 196kts
05-Feb-21 15:32 34.197172 -118.944520 272 4235ft 217kts
05-Feb-21 15:33 34.198122 -119.009133 272 3702ft 156kts
05-Feb-21 15:34 34.198810 -119.053542 273 3425ft 131kts
05-Feb-21 15:35 34.199957 -119.102483 273 2193ft 155kts
05-Feb-21 15:36 34.200846 -119.152299 269 728ft 135kts
05-Feb-21 15:37 34.200688 -119.185872 270 254ft 73kts
05-Feb-21 15:38 34.200830 -119.209013 274 43ft 34kts
05-Feb-21 15:39 34.199947 -119.211567 184 39ft 0kts
05-Feb-21 15:40 34.199947 -119.211567 184 39ft 0kts
05-Feb-21 15:41 34.199806 -119.207754 91 45ft 15kts
05-Feb-21 15:42 34.199319 -119.206510 176 45ft 0kts
05-Feb-21 15:43 34.199319 -119.206510 176 45ft 0kts
05-Feb-21 15:44 34.199319 -119.206510 176 45ft 0kts
05-Feb-21 15:45 34.199319 -119.206510 176 45ft 0kts
05-Feb-21 15:46 34.199319 -119.206510 176 45ft 0kts
05-Feb-21 15:47 34.199319 -119.206510 176 45ft 0kts
05-Feb-21 15:48 34.199319 -119.206510 176 45ft 0kts
05-Feb-21 15:49 34.199319 -119.206510 176 45ft 0kts
05-Feb-21 15:50 34.199319 -119.206510 176 45ft 0kts
05-Feb-21 15:51 34.199319 -119.206510 176 45ft 0kts
05-Feb-21 15:52 34.199319 -119.206510 176 45ft 0kts

Navigation Log

Ident Type
Flight plan parsing failed, navigation log unavailable